createdAt,value
2022-09-10T00:03:23.166Z,2.40
2022-09-10T00:08:20.196Z,2.67
2022-09-10T00:10:52.021Z,2.70
2022-09-10T00:13:21.532Z,2.97
2022-09-10T00:15:52.614Z,3.08
2022-09-10T00:18:22.175Z,2.53
2022-09-10T00:20:54.015Z,2.60
2022-09-10T00:23:23.809Z,3.20
2022-09-10T00:25:52.179Z,2.13
2022-09-10T00:28:19.948Z,3.15
2022-09-10T00:30:48.800Z,3.10
2022-09-10T00:33:17.142Z,3.17
2022-09-10T00:35:44.703Z,3.40
2022-09-10T00:38:13.111Z,3.10
2022-09-10T00:40:41.025Z,3.00
2022-09-10T00:43:19.659Z,2.70
2022-09-10T00:45:54.689Z,2.53
2022-09-10T00:48:30.482Z,1.80
2022-09-10T00:51:01.136Z,1.88
2022-09-10T00:53:28.893Z,1.40
2022-09-10T00:55:59.841Z,1.20
2022-09-10T00:58:28.601Z,1.10
2022-09-10T01:01:00.232Z,1.25
2022-09-10T01:03:30.102Z,1.10
2022-09-10T01:05:57.773Z,1.30
2022-09-10T01:08:27.266Z,1.25
2022-09-10T01:11:20.645Z,1.00
2022-09-10T01:14:09.764Z,1.05
2022-09-10T01:16:58.618Z,1.27
2022-09-10T01:19:56.255Z,1.10
2022-09-10T01:22:32.529Z,0.90
2022-09-10T01:25:34.880Z,1.20
2022-09-10T01:28:10.779Z,0.80
2022-09-10T01:30:54.749Z,1.08
2022-09-10T01:33:44.706Z,1.08
2022-09-10T01:36:16.981Z,1.33
2022-09-10T01:38:44.166Z,0.80
2022-09-10T01:41:10.902Z,0.80
2022-09-10T01:43:37.655Z,0.90
2022-09-10T01:46:29.801Z,0.85
2022-09-10T01:49:10.972Z,0.63
2022-09-10T01:52:18.471Z,0.63
2022-09-10T01:54:45.687Z,0.63
2022-09-10T01:57:38.973Z,0.70
2022-09-10T02:00:11.658Z,0.70
2022-09-10T02:02:57.863Z,0.68
2022-09-10T02:05:27.336Z,0.70
2022-09-10T02:07:58.961Z,0.75
2022-09-10T02:10:26.491Z,0.90
2022-09-10T02:12:53.608Z,0.70
2022-09-10T02:15:22.565Z,0.70
2022-09-10T02:17:50.171Z,0.50
2022-09-10T02:20:17.453Z,0.73
2022-09-10T02:22:49.901Z,1.05
2022-09-10T02:25:16.780Z,0.85
2022-09-10T02:27:44.360Z,1.00
2022-09-10T02:30:11.805Z,0.55
2022-09-10T02:32:38.575Z,0.68
2022-09-10T02:35:05.751Z,0.90
2022-09-10T02:37:33.025Z,0.65
2022-09-10T02:39:59.757Z,0.63
2022-09-10T02:42:26.979Z,0.70
2022-09-10T02:47:40.047Z,0.73
2022-09-10T02:50:08.820Z,0.70
2022-09-10T02:52:36.016Z,0.60
2022-09-10T02:55:02.762Z,0.70
2022-09-10T03:05:58.501Z,1.05
2022-09-10T03:08:26.662Z,0.90
2022-09-10T03:13:31.478Z,0.55
2022-09-10T03:15:59.137Z,0.65
2022-09-10T03:21:18.408Z,0.80
2022-09-10T03:23:49.522Z,0.60
2022-09-10T03:26:18.248Z,0.47
2022-09-10T03:28:46.816Z,0.70
2022-09-10T03:31:14.345Z,0.73
2022-09-10T03:33:42.064Z,0.90
2022-09-10T03:36:10.367Z,0.63
2022-09-10T03:38:37.670Z,0.52
2022-09-10T03:41:04.811Z,0.57
2022-09-10T03:43:31.573Z,0.60
2022-09-10T03:45:58.783Z,0.60
2022-09-10T03:48:25.991Z,0.45
2022-09-10T03:50:52.685Z,0.60
2022-09-10T03:53:19.623Z,0.80
2022-09-10T03:55:48.107Z,0.70
2022-09-10T03:58:16.122Z,0.80
2022-09-10T04:00:43.193Z,1.08
2022-09-10T04:03:14.350Z,0.80
2022-09-10T04:05:44.148Z,0.98
2022-09-10T04:08:12.388Z,0.90
2022-09-10T04:10:40.495Z,0.80
2022-09-10T04:13:07.248Z,0.90
2022-09-10T04:15:34.677Z,1.00
2022-09-10T04:18:01.484Z,0.80
2022-09-10T04:20:28.720Z,0.70
2022-09-10T04:22:56.716Z,1.23
2022-09-10T04:25:23.539Z,1.00
2022-09-10T04:27:50.550Z,1.00
2022-09-10T04:30:18.585Z,0.73
2022-09-10T04:32:45.893Z,0.90
2022-09-10T04:35:15.308Z,0.68
2022-09-10T04:37:43.206Z,1.00
2022-09-10T04:40:10.690Z,0.85
2022-09-10T04:42:38.408Z,0.77
2022-09-10T04:45:06.770Z,1.23
2022-09-10T04:47:34.227Z,1.05
2022-09-10T04:50:01.149Z,1.08
2022-09-10T04:52:28.973Z,1.30
2022-09-10T04:54:55.690Z,1.05
2022-09-10T04:57:23.541Z,1.10
2022-09-10T05:03:05.266Z,1.45
2022-09-10T05:05:32.898Z,1.10
2022-09-10T05:08:00.551Z,1.10
2022-09-10T05:10:28.073Z,0.98
2022-09-10T05:12:55.186Z,1.40
2022-09-10T05:15:22.335Z,1.10
2022-09-10T05:17:49.852Z,1.20
2022-09-10T05:20:16.702Z,1.40
2022-09-10T05:22:43.812Z,1.52
2022-09-10T05:25:10.655Z,1.48
2022-09-10T05:27:37.362Z,1.25
2022-09-10T05:30:06.373Z,0.73
2022-09-10T05:32:33.101Z,0.73
2022-09-10T05:35:00.522Z,0.60
2022-09-10T05:37:27.671Z,0.77
2022-09-10T05:39:54.432Z,0.90
2022-09-10T05:42:22.459Z,0.50
2022-09-10T05:44:49.196Z,0.68
2022-09-10T05:47:15.989Z,0.50
2022-09-10T05:49:43.136Z,0.68
2022-09-10T05:52:10.250Z,0.88
2022-09-10T05:54:37.471Z,0.80
2022-09-10T05:57:04.902Z,0.70
2022-09-10T05:59:31.630Z,0.90
2022-09-10T06:01:58.481Z,0.95
2022-09-10T06:04:25.455Z,0.80
2022-09-10T06:06:52.265Z,0.70
2022-09-10T06:09:19.402Z,0.90
2022-09-10T06:11:49.638Z,1.00
2022-09-10T06:14:16.880Z,0.70
2022-09-10T06:16:43.653Z,1.08
2022-09-10T06:19:11.082Z,0.80
2022-09-10T06:21:38.101Z,0.75
2022-09-10T06:24:05.397Z,1.00
2022-09-10T06:26:32.612Z,0.88
2022-09-10T06:28:59.690Z,0.70
2022-09-10T06:31:27.313Z,0.80
2022-09-10T06:33:54.116Z,0.88
2022-09-10T06:36:20.905Z,0.60
2022-09-10T06:38:49.558Z,0.60
2022-09-10T06:41:17.220Z,0.70
2022-09-10T06:43:44.935Z,1.00
2022-09-10T06:46:50.957Z,0.80
2022-09-10T06:49:03.743Z,1.15
2022-09-10T06:51:30.901Z,1.67
2022-09-10T06:53:57.838Z,0.70
2022-09-10T06:56:24.789Z,0.80
2022-09-10T06:58:51.844Z,2.58
2022-09-10T07:01:20.660Z,1.13
2022-09-10T07:03:47.864Z,0.70
2022-09-10T07:06:17.356Z,0.55
2022-09-10T07:08:44.690Z,0.50
2022-09-10T07:11:13.990Z,0.60
2022-09-10T07:13:43.051Z,0.70
2022-09-10T07:16:10.149Z,0.60
2022-09-10T07:18:37.015Z,0.55
2022-09-10T07:21:09.629Z,0.60
2022-09-10T07:23:39.025Z,0.60
2022-09-10T07:26:08.071Z,0.63
2022-09-10T07:28:36.267Z,0.70
2022-09-10T07:31:24.315Z,1.13
2022-09-10T07:33:51.164Z,0.70
2022-09-10T07:36:18.365Z,0.70
2022-09-10T07:38:45.723Z,1.00
2022-09-10T07:41:14.273Z,1.10
2022-09-10T07:43:42.378Z,0.90
2022-09-10T07:46:13.295Z,1.00
2022-09-10T07:48:41.554Z,0.73
2022-09-10T07:51:10.824Z,0.75
2022-09-10T07:53:38.663Z,0.60
2022-09-10T07:56:07.166Z,0.50
2022-09-10T07:58:36.035Z,1.40
2022-09-10T08:01:09.152Z,0.68
2022-09-10T08:03:36.521Z,1.08
2022-09-10T08:06:03.994Z,0.93
2022-09-10T08:08:35.418Z,1.17
2022-09-10T08:11:14.018Z,0.60
2022-09-10T08:13:42.768Z,0.98
2022-09-10T08:16:12.446Z,0.90
2022-09-10T08:18:40.360Z,0.77
2022-09-10T08:21:10.770Z,0.50
2022-09-10T08:23:39.836Z,0.50
2022-09-10T08:26:08.309Z,0.50
2022-09-10T08:28:38.582Z,0.82
2022-09-10T08:31:11.709Z,0.68
2022-09-10T08:33:39.749Z,0.73
2022-09-10T08:36:08.695Z,0.60
2022-09-10T08:38:39.875Z,0.60
2022-09-10T08:41:37.773Z,0.70
2022-09-10T08:44:10.443Z,0.80
2022-09-10T08:46:45.391Z,0.70
2022-09-10T08:49:15.397Z,0.60
2022-09-10T08:51:51.042Z,0.70
2022-09-10T08:54:25.217Z,0.95
2022-09-10T08:56:53.581Z,0.65
2022-09-10T08:59:37.250Z,1.00
2022-09-10T09:02:47.952Z,1.17
2022-09-10T09:05:18.012Z,0.60
2022-09-10T09:07:47.022Z,0.70
2022-09-10T09:10:25.925Z,0.60
2022-09-10T09:13:15.133Z,0.60
2022-09-10T09:15:51.832Z,0.73
2022-09-10T09:18:35.297Z,0.50
2022-09-10T09:21:13.065Z,0.77
2022-09-10T09:24:11.785Z,0.60
2022-09-10T09:26:38.058Z,0.70
2022-09-10T09:29:13.365Z,0.70
2022-09-10T09:31:45.700Z,0.68
2022-09-10T09:34:52.597Z,0.70
2022-09-10T09:37:24.748Z,0.75
2022-09-10T09:40:25.469Z,0.70
2022-09-10T09:43:16.798Z,0.82
2022-09-10T09:45:44.109Z,1.40
2022-09-10T09:48:14.740Z,1.02
2022-09-10T09:50:45.136Z,0.90
2022-09-10T09:53:19.916Z,1.27
2022-09-10T09:55:52.016Z,0.90
2022-09-10T09:58:26.270Z,0.85
2022-09-10T10:01:05.165Z,0.90
2022-09-10T10:03:44.204Z,0.80
2022-09-10T10:06:12.192Z,0.70
2022-09-10T10:08:42.688Z,1.67
2022-09-10T10:11:13.417Z,0.70
2022-09-10T10:13:45.800Z,0.90
2022-09-10T10:16:31.056Z,1.08
2022-09-10T10:18:58.172Z,0.73
2022-09-10T10:21:34.017Z,0.63
2022-09-10T10:24:01.210Z,0.68
2022-09-10T10:26:33.715Z,1.30
2022-09-10T10:29:16.323Z,0.60
2022-09-10T10:31:45.779Z,1.50
2022-09-10T10:34:37.405Z,0.75
2022-09-10T10:37:07.107Z,0.60
2022-09-10T10:39:40.227Z,1.90
2022-09-10T10:42:29.727Z,1.38
2022-09-10T10:45:18.546Z,1.08
2022-09-10T10:47:51.164Z,0.93
2022-09-10T10:50:44.198Z,0.70
2022-09-10T10:53:22.882Z,0.20
2022-09-10T10:56:14.758Z,0.20
2022-09-10T10:59:13.965Z,0.60
2022-09-10T11:01:47.792Z,0.50
2022-09-10T11:04:44.068Z,0.63
2022-09-10T11:07:30.994Z,0.40
2022-09-10T11:10:12.418Z,0.20
2022-09-10T11:12:49.300Z,0.45
2022-09-10T11:15:29.059Z,0.28
2022-09-10T11:18:02.757Z,0.50
2022-09-10T11:20:46.177Z,0.30
2022-09-10T11:23:48.292Z,0.40
2022-09-10T11:26:38.873Z,0.25
2022-09-10T11:29:21.399Z,0.60
2022-09-10T11:31:57.694Z,0.47
2022-09-10T11:34:47.243Z,0.40
2022-09-10T11:37:32.261Z,1.05
2022-09-10T11:40:02.941Z,6.60
2022-09-10T11:42:36.599Z,0.30
2022-09-10T11:45:06.749Z,0.30
2022-09-10T11:47:41.284Z,0.20
2022-09-10T11:50:21.656Z,0.35
2022-09-10T11:52:49.733Z,0.32
2022-09-10T11:55:17.633Z,0.47
2022-09-10T11:57:59.516Z,0.40
2022-09-10T12:00:29.250Z,0.30
2022-09-10T12:03:20.290Z,0.55
2022-09-10T12:06:00.237Z,0.40
2022-09-10T12:09:04.405Z,0.30
2022-09-10T12:11:58.551Z,0.40
2022-09-10T12:14:25.358Z,0.43
2022-09-10T12:17:08.643Z,0.25
2022-09-10T12:19:37.838Z,0.30
2022-09-10T12:22:24.469Z,0.38
2022-09-10T12:24:59.281Z,0.30
2022-09-10T12:27:44.286Z,0.22
2022-09-10T12:30:33.391Z,0.30
2022-09-10T12:33:07.594Z,0.20
2022-09-10T12:35:42.746Z,0.35
2022-09-10T12:38:47.503Z,0.30
2022-09-10T12:41:23.468Z,0.35
2022-09-10T12:43:53.316Z,0.30
2022-09-10T12:46:23.317Z,0.30
2022-09-10T12:48:56.157Z,0.30
2022-09-10T12:51:50.086Z,0.30
2022-09-10T12:54:37.032Z,0.30
2022-09-10T12:57:21.535Z,0.40
2022-09-10T13:00:13.103Z,0.32
2022-09-10T13:02:52.414Z,0.20
2022-09-10T13:05:29.983Z,0.28
2022-09-10T13:08:05.356Z,0.43
2022-09-10T13:10:32.794Z,0.47
2022-09-10T13:13:04.965Z,0.25
2022-09-10T13:15:35.685Z,0.20
2022-09-10T13:18:21.292Z,0.38
2022-09-10T13:20:48.079Z,0.10
2022-09-10T13:23:19.212Z,0.40
2022-09-10T13:25:47.686Z,0.25
2022-09-10T13:28:36.893Z,0.20
2022-09-10T13:31:11.271Z,0.30
2022-09-10T13:33:49.109Z,0.30
2022-09-10T13:36:30.457Z,0.28
2022-09-10T13:39:00.905Z,0.20
2022-09-10T13:41:59.095Z,0.30
2022-09-10T13:44:25.783Z,0.35
2022-09-10T13:46:57.283Z,0.30
2022-09-10T13:49:30.023Z,0.30
2022-09-10T13:52:02.039Z,0.20
2022-09-10T13:54:35.077Z,0.30
2022-09-10T13:57:21.383Z,0.43
2022-09-10T13:59:51.940Z,0.40
2022-09-10T14:02:21.225Z,0.20
2022-09-10T14:04:48.511Z,0.30
2022-09-10T14:07:25.559Z,0.40
2022-09-10T14:09:58.384Z,0.20
2022-09-10T14:12:28.117Z,0.20
2022-09-10T14:14:59.154Z,0.30
2022-09-10T14:17:31.625Z,0.20
2022-09-10T14:20:01.816Z,0.20
2022-09-10T14:22:31.141Z,0.77
2022-09-10T14:25:00.670Z,0.35
2022-09-10T14:27:36.515Z,0.30
2022-09-10T14:30:24.299Z,0.30
2022-09-10T14:32:52.229Z,0.30
2022-09-10T14:35:39.440Z,0.40
2022-09-10T14:38:24.385Z,0.17
2022-09-10T14:41:08.819Z,0.30
2022-09-10T14:43:38.409Z,0.35
2022-09-10T14:46:10.514Z,0.20
2022-09-10T14:48:39.019Z,0.40
2022-09-10T14:51:17.663Z,0.30
2022-09-10T14:53:46.540Z,0.30
2022-09-10T14:56:26.684Z,0.30
2022-09-10T14:59:01.324Z,0.45
2022-09-10T15:01:29.344Z,0.30
2022-09-10T15:03:56.859Z,0.57
2022-09-10T15:06:26.640Z,0.40
2022-09-10T15:08:56.275Z,0.40
2022-09-10T15:11:27.053Z,0.20
2022-09-10T15:13:56.101Z,0.30
2022-09-10T15:16:25.654Z,0.47
2022-09-10T15:18:52.822Z,0.50
2022-09-10T15:21:19.967Z,0.40
2022-09-10T15:23:48.164Z,0.40
2022-09-10T15:26:15.547Z,0.50
2022-09-10T15:28:42.305Z,0.60
2022-09-10T15:31:10.444Z,0.43
2022-09-10T15:33:37.334Z,0.65
2022-09-10T15:36:04.426Z,0.30
2022-09-10T15:38:31.484Z,0.43
2022-09-10T15:41:12.861Z,0.47
2022-09-10T15:43:43.061Z,0.70
2022-09-10T15:46:12.210Z,0.40
2022-09-10T15:48:39.511Z,0.70
2022-09-10T15:51:09.692Z,0.70
2022-09-10T15:53:36.624Z,0.50
2022-09-10T15:56:05.269Z,1.00
2022-09-10T15:58:32.005Z,0.80
2022-09-10T16:01:03.928Z,0.88
2022-09-10T16:03:32.049Z,0.77
2022-09-10T16:06:01.415Z,0.73
2022-09-10T16:08:28.482Z,0.95
2022-09-10T16:10:55.400Z,0.65
2022-09-10T16:13:22.785Z,0.50
2022-09-10T16:16:04.452Z,0.93
2022-09-10T16:18:33.013Z,1.92
2022-09-10T16:21:15.656Z,1.45
2022-09-10T16:23:43.437Z,1.10
2022-09-10T16:26:15.958Z,1.05
2022-09-10T16:28:55.389Z,1.00
2022-09-10T16:31:24.514Z,0.63
2022-09-10T16:33:54.968Z,0.80
2022-09-10T16:36:23.838Z,1.27
2022-09-10T16:38:55.544Z,1.00
2022-09-10T16:41:24.081Z,0.70
2022-09-10T16:43:51.544Z,1.13
2022-09-10T16:46:19.382Z,1.48
2022-09-10T16:48:46.612Z,1.00
2022-09-10T16:51:19.705Z,1.10
2022-09-10T16:53:52.514Z,1.70
2022-09-10T16:56:19.399Z,1.00
2022-09-10T16:58:48.446Z,1.60
2022-09-10T17:01:16.481Z,1.15
2022-09-10T17:03:55.115Z,1.02
2022-09-10T17:06:27.355Z,1.55
2022-09-10T17:08:57.624Z,1.38
2022-09-10T17:11:26.626Z,1.67
2022-09-10T17:13:54.245Z,1.52
2022-09-10T17:16:21.056Z,1.63
2022-09-10T17:19:14.639Z,1.83
2022-09-10T17:21:44.690Z,1.58
2022-09-10T17:26:57.600Z,1.13
2022-09-10T17:29:25.781Z,1.52
2022-09-10T17:31:53.088Z,1.90
2022-09-10T17:34:21.673Z,1.30
2022-09-10T17:36:49.191Z,1.40
2022-09-10T17:39:16.888Z,1.70
2022-09-10T17:41:44.187Z,1.85
2022-09-10T17:44:12.309Z,1.40
2022-09-10T17:46:39.659Z,1.38
2022-09-10T17:49:06.862Z,1.40
2022-09-10T17:51:35.331Z,1.70
2022-09-10T17:54:03.233Z,1.30
2022-09-10T17:56:30.844Z,1.20
2022-09-10T17:59:01.362Z,1.33
2022-09-10T18:04:04.249Z,0.90
2022-09-10T18:06:32.372Z,0.98
2022-09-10T18:09:00.783Z,1.48
2022-09-10T18:11:30.656Z,0.88
2022-09-10T18:13:58.788Z,1.45
2022-09-10T18:16:28.544Z,1.10
2022-09-10T18:19:01.357Z,1.45
2022-09-10T18:21:33.225Z,1.60
2022-09-10T18:24:03.281Z,1.80
2022-09-10T18:26:37.149Z,1.52
2022-09-10T18:29:07.761Z,1.38
2022-09-10T18:31:42.641Z,1.00
2022-09-10T18:34:12.658Z,1.50
2022-09-10T18:36:39.660Z,1.00
2022-09-10T18:41:53.312Z,1.00
2022-09-10T18:44:29.554Z,1.27
2022-09-10T18:46:56.735Z,1.17
2022-09-10T18:49:25.172Z,1.60
2022-09-10T18:51:54.062Z,1.00
2022-09-10T18:54:23.263Z,1.25
2022-09-10T18:56:51.205Z,0.88
2022-09-10T18:59:20.483Z,1.20
2022-09-10T19:01:48.441Z,0.93
2022-09-10T19:04:18.511Z,1.60
2022-09-10T19:06:47.374Z,0.90
2022-09-10T19:09:17.809Z,1.38
2022-09-10T19:11:47.306Z,0.98
2022-09-10T19:14:21.888Z,1.60
2022-09-10T19:16:50.824Z,1.20
2022-09-10T19:19:22.999Z,1.17
2022-09-10T19:21:52.145Z,1.27
2022-09-10T19:24:32.809Z,1.23
2022-09-10T19:27:05.025Z,1.20
2022-09-10T19:29:32.156Z,1.20
2022-09-10T19:37:33.381Z,1.30
2022-09-10T19:43:03.363Z,1.00
2022-09-10T19:45:31.589Z,1.20
2022-09-10T19:48:03.309Z,1.20
2022-09-10T19:50:30.859Z,1.30
2022-09-10T19:52:57.954Z,1.20
2022-09-10T19:55:26.911Z,1.38
2022-09-10T19:57:57.195Z,1.30
2022-09-10T20:00:45.520Z,1.58
2022-09-10T20:03:11.244Z,1.45
2022-09-10T20:05:39.097Z,1.35
2022-09-10T20:10:53.773Z,1.25
2022-09-10T20:13:21.031Z,1.20
2022-09-10T20:18:36.475Z,1.13
2022-09-10T20:21:16.072Z,1.55
2022-09-10T20:23:45.531Z,1.35
2022-09-10T20:26:15.959Z,1.60
2022-09-10T20:28:44.114Z,1.67
2022-09-10T20:33:57.286Z,1.67
2022-09-10T20:36:26.225Z,1.65
2022-09-10T20:39:30.030Z,1.50
2022-09-10T20:45:46.665Z,1.60
2022-09-10T20:48:14.265Z,1.55
2022-09-10T20:50:50.280Z,1.58
2022-09-10T20:53:17.069Z,1.58
2022-09-10T20:58:19.277Z,1.70
2022-09-10T21:00:46.858Z,1.65
2022-09-10T21:15:31.367Z,1.40
2022-09-10T21:17:58.468Z,1.45
2022-09-10T21:22:53.263Z,1.15
2022-09-10T21:28:23.344Z,1.33
2022-09-10T21:30:53.284Z,2.20
2022-09-10T21:33:20.770Z,1.88
2022-09-10T21:35:48.334Z,1.13
2022-09-10T21:38:16.293Z,1.63
2022-09-10T21:40:43.387Z,0.93
2022-09-10T21:43:10.460Z,1.60
2022-09-10T21:45:37.819Z,1.60
2022-09-10T21:48:04.510Z,1.50
2022-09-10T21:50:31.722Z,1.35
2022-09-10T21:52:58.952Z,1.50
2022-09-10T21:55:25.906Z,1.70
2022-09-10T21:57:52.647Z,1.25
2022-09-10T22:00:19.490Z,1.30
2022-09-10T22:02:46.408Z,1.45
2022-09-10T22:05:14.439Z,1.52
2022-09-10T22:07:41.552Z,1.67
2022-09-10T22:10:09.349Z,1.48
2022-09-10T22:12:36.261Z,2.13
2022-09-10T22:15:03.119Z,1.73
2022-09-10T22:17:29.937Z,1.77
2022-09-10T22:19:57.028Z,2.00
2022-09-10T22:22:24.274Z,2.85
2022-09-10T22:24:52.051Z,1.77
2022-09-10T22:27:18.922Z,1.83
2022-09-10T22:29:45.617Z,2.30
2022-09-10T22:32:12.733Z,1.55
2022-09-10T22:34:39.432Z,2.13
2022-09-10T22:37:06.356Z,1.77
2022-09-10T22:39:36.819Z,1.52
2022-09-10T22:42:04.672Z,2.28
2022-09-10T22:44:31.727Z,1.98
2022-09-10T22:46:59.896Z,1.98
2022-09-10T22:49:27.028Z,1.42
2022-09-10T22:51:53.751Z,1.75
2022-09-10T22:54:20.516Z,1.60
2022-09-10T22:56:47.277Z,1.77
2022-09-10T22:59:15.122Z,1.65
2022-09-10T23:04:17.709Z,1.00
2022-09-10T23:06:44.520Z,0.90
2022-09-10T23:09:14.262Z,0.90
2022-09-10T23:11:41.875Z,1.00
2022-09-10T23:14:11.253Z,0.98
2022-09-10T23:16:41.706Z,0.98
2022-09-10T23:19:14.764Z,0.85
2022-09-10T23:21:44.408Z,0.70
2022-09-10T23:24:13.807Z,1.00
2022-09-10T23:26:42.007Z,0.80
2022-09-10T23:29:09.879Z,0.85
2022-09-10T23:31:38.607Z,1.00
2022-09-10T23:36:52.692Z,0.80
2022-09-10T23:42:05.297Z,0.80
2022-09-10T23:44:32.778Z,0.90
2022-09-10T23:50:29.590Z,0.90
2022-09-10T23:52:56.352Z,1.25
2022-09-10T23:55:23.159Z,1.35
2022-09-10T23:57:49.946Z,0.90
